Terminal Aerodrome Forecast
Issued by NWS Wilmington, OH

Current Version | Previous Version | Text Only | Print | Product List | Glossary Off
Versions: 1 2 3 4 5 6 7 8 9 10 11 12 13 14 15 16 17 18 19 20 21 22 23 24

000
FTUS41 KILN 192338
TAFDAY
TAF
KDAY 192338Z 2000/2024 04007KT P6SM BKN050
     FM200200 04008KT P6SM BKN012
     FM200700 05008KT P6SM OVC007
     FM201400 12007KT P6SM VCSH BKN016
     FM201600 14007KT P6SM VCSH BKN045
     FM201900 15007KT P6SM VCTS BKN050CB=

USA.gov is the U.S. government's official web portal to all federal, state and local government web resources and services.